Time;durP1;ratioP1;P1;durP2;ratioP2;P2;SDS_P1;SDS_P2;PMS_P1;PMS_P2;Temp;Humidity;BMP_temperature;BMP_pressure;BME280_temperature;BME280_humidity;BME280_pressure;Samples;Min_cycle;Max_cycle;Signal;HPM_P1;HPM_P2
2021/03/03 00:02:22;;;;;;;34.45;17.60;;;;;;;4.67;66.36;97089.63;5009387;28;20086;-42
2021/03/03 00:04:48;;;;;;;33.90;17.67;;;;;;;4.51;66.91;97079.16;5011073;28;20053;-42
2021/03/03 00:07:15;;;;;;;34.05;17.15;;;;;;;4.58;65.97;97093.09;5011972;28;20073;-39
2021/03/03 00:09:42;;;;;;;34.97;17.95;;;;;;;4.49;66.92;97097.38;5007869;28;20050;-41
2021/03/03 00:12:09;;;;;;;32.75;18.58;;;;;;;4.40;67.47;97097.88;4993500;28;20141;-44
2021/03/03 00:14:36;;;;;;;33.90;18.02;;;;;;;4.47;67.38;97096.84;5007515;28;20419;-41
2021/03/03 00:17:03;;;;;;;33.35;18.42;;;;;;;4.55;67.24;97101.66;5009773;28;20061;-45
2021/03/03 00:19:30;;;;;;;33.10;18.25;;;;;;;4.44;67.51;97101.63;5005595;28;20084;-45
2021/03/03 00:21:56;;;;;;;29.90;17.52;;;;;;;4.56;67.23;97095.25;5012529;28;20152;-45
2021/03/03 00:24:23;;;;;;;31.77;17.65;;;;;;;4.47;66.79;97096.84;5011102;28;20046;-45
2021/03/03 00:26:49;;;;;;;30.40;17.42;;;;;;;4.53;66.46;97093.09;5001266;28;20415;-43
2021/03/03 00:29:16;;;;;;;31.05;17.98;;;;;;;4.75;65.22;97082.97;5001801;28;20458;-40
2021/03/03 00:31:42;;;;;;;28.17;16.15;;;;;;;4.63;65.97;97090.44;5000433;28;20062;-39
2021/03/03 00:34:09;;;;;;;30.55;17.00;;;;;;;4.58;66.55;97088.56;5011291;28;20060;-41
2021/03/03 00:36:35;;;;;;;28.85;16.63;;;;;;;4.43;66.59;97081.28;5011697;28;20426;-44
2021/03/03 00:39:02;;;;;;;32.17;16.45;;;;;;;4.48;66.68;97085.03;4997709;28;20061;-42
2021/03/03 00:41:28;;;;;;;27.73;16.67;;;;;;;4.37;66.53;97090.38;4992763;28;20104;-42
2021/03/03 00:43:55;;;;;;;32.25;16.75;;;;;;;4.62;65.55;97086.97;5006789;28;20054;-47
2021/03/03 00:46:21;;;;;;;31.95;17.25;;;;;;;4.51;65.82;97079.16;4997195;28;20050;-44
2021/03/03 00:48:49;;;;;;;28.15;15.73;;;;;;;4.46;65.86;97074.59;5008609;28;20095;-47
2021/03/03 00:51:17;;;;;;;26.50;15.70;;;;;;;4.28;66.22;97067.03;5010281;28;20054;-45
2021/03/03 00:53:45;;;;;;;25.90;15.73;;;;;;;4.43;65.47;97067.88;5009915;28;20141;-43
2021/03/03 00:56:12;;;;;;;28.08;15.48;;;;;;;4.58;65.39;97066.28;5001131;28;20124;-41
2021/03/03 00:58:40;;;;;;;29.50;15.85;;;;;;;4.41;66.04;97064.66;5011863;28;20081;-45
2021/03/03 01:01:07;;;;;;;29.30;15.32;;;;;;;4.41;65.50;97048.56;4998915;28;20049;-40
2021/03/03 01:03:36;;;;;;;30.60;15.63;;;;;;;4.73;64.56;97057.47;5010180;28;20053;-45
2021/03/03 01:06:17;;;;;;;27.08;15.52;;;;;;;4.40;65.80;97057.69;5010759;28;20107;-44
2021/03/03 01:08:43;;;;;;;26.42;14.70;;;;;;;4.18;67.19;97057.09;5000986;28;20551;-40
2021/03/03 01:11:10;;;;;;;29.27;16.00;;;;;;;4.29;65.70;97053.38;4992798;28;20065;-46
2021/03/03 01:13:40;;;;;;;28.70;14.93;;;;;;;4.29;65.87;97057.91;5010693;28;20053;-43
2021/03/03 01:16:11;;;;;;;30.92;16.42;;;;;;;4.56;65.20;97060.41;5010087;28;20045;-42
2021/03/03 01:18:38;;;;;;;29.17;16.00;;;;;;;4.20;65.94;97044.25;4994704;28;20062;-43
2021/03/03 01:21:05;;;;;;;27.85;15.55;;;;;;;4.15;66.83;97054.94;4991743;28;20054;-44
2021/03/03 01:23:31;;;;;;;30.60;15.20;;;;;;;4.06;67.03;97043.13;4991210;28;20133;-42
2021/03/03 01:25:58;;;;;;;26.30;15.13;;;;;;;4.03;67.29;97057.88;4998808;28;20141;-39
2021/03/03 01:28:28;;;;;;;25.40;15.48;;;;;;;3.92;66.85;97043.63;5009952;28;20042;-43
2021/03/03 01:30:56;;;;;;;27.67;14.75;;;;;;;4.14;66.49;97048.78;4999556;28;20069;-43
2021/03/03 01:33:27;;;;;;;26.52;14.18;;;;;;;4.27;65.51;97046.69;5010822;28;20053;-44
2021/03/03 01:35:54;;;;;;;27.45;13.98;;;;;;;4.23;65.78;97041.06;5010470;28;20104;-43
2021/03/03 01:38:21;;;;;;;27.33;14.57;;;;;;;4.35;65.15;97038.91;5004597;28;20050;-42
2021/03/03 01:40:48;;;;;;;26.75;14.05;;;;;;;4.20;65.88;97036.22;5008571;28;20363;-43
2021/03/03 01:43:16;;;;;;;25.67;14.25;;;;;;;4.22;65.69;97020.66;5009189;28;20081;-42
2021/03/03 01:45:42;;;;;;;24.23;13.85;;;;;;;4.62;64.40;97027.19;5010355;28;20050;-40
2021/03/03 01:48:11;;;;;;;24.17;13.38;;;;;;;4.43;65.14;97033.03;5005914;28;20428;-41
2021/03/03 01:50:39;;;;;;;23.80;13.48;;;;;;;4.51;64.92;97026.34;5006481;28;20085;-38
2021/03/03 01:53:06;;;;;;;24.88;14.70;;;;;;;4.57;64.36;97024.47;5010396;28;20057;-39
2021/03/03 01:55:33;;;;;;;25.85;13.63;;;;;;;4.25;65.22;97025.50;5006981;28;20116;-43
2021/03/03 01:58:01;;;;;;;27.60;13.88;;;;;;;4.37;63.84;97028.75;5000969;28;20307;-47
2021/03/03 02:00:27;;;;;;;26.70;14.27;;;;;;;4.18;64.53;97017.72;5000463;28;20136;-41
2021/03/03 02:02:54;;;;;;;23.25;12.32;;;;;;;4.38;64.50;97026.88;4992376;28;20080;-39
2021/03/03 02:05:20;;;;;;;23.15;13.65;;;;;;;4.33;64.69;97030.34;4991919;28;20056;-42
2021/03/03 02:07:57;;;;;;;24.85;12.85;;;;;;;4.04;65.71;97030.00;5003335;28;20104;-44
2021/03/03 02:10:42;;;;;;;28.75;12.85;;;;;;;3.68;66.93;97031.75;4996478;28;20061;-38
2021/03/03 02:13:29;;;;;;;21.08;11.88;;;;;;;3.62;67.44;97024.75;5004573;28;20076;-43
2021/03/03 02:16:02;;;;;;;20.08;11.20;;;;;;;3.81;66.65;97033.94;5013190;28;20050;-39
2021/03/03 02:18:31;;;;;;;21.27;10.77;;;;;;;3.79;66.59;97035.25;5007803;28;20061;-42
2021/03/03 02:21:00;;;;;;;17.85;10.48;;;;;;;3.66;67.40;97033.88;5014004;28;20462;-41
2021/03/03 02:23:45;;;;;;;24.42;11.40;;;;;;;3.97;66.40;97026.78;5011752;28;20053;-42
2021/03/03 02:26:15;;;;;;;18.85;10.73;;;;;;;4.38;64.17;97026.88;4996178;28;20471;-39
2021/03/03 02:28:43;;;;;;;23.05;11.45;;;;;;;4.15;64.72;97017.44;5011877;28;20050;-43
2021/03/03 02:31:13;;;;;;;18.80;11.75;;;;;;;4.29;64.11;97028.44;4997333;28;20109;-44
2021/03/03 02:33:43;;;;;;;19.95;11.10;;;;;;;3.97;64.71;97026.78;5009132;28;20081;-46
2021/03/03 02:36:12;;;;;;;19.77;10.82;;;;;;;3.81;64.95;97023.22;5013471;28;20723;-39
2021/03/03 02:38:42;;;;;;;22.38;10.82;;;;;;;3.38;66.34;97027.03;5013656;28;20049;-40
2021/03/03 02:41:10;;;;;;;18.23;11.00;;;;;;;3.18;67.56;97025.84;5012770;28;20077;-42
2021/03/03 02:43:38;;;;;;;18.35;10.15;;;;;;;3.09;67.66;97019.38;5012986;28;20060;-40
2021/03/03 02:46:05;;;;;;;18.02;9.50;;;;;;;3.12;67.43;97026.88;5015403;28;20046;-42
2021/03/03 02:48:32;;;;;;;15.70;8.48;;;;;;;2.43;68.73;97033.00;4994874;28;20061;-39
2021/03/03 02:51:02;;;;;;;16.95;8.40;;;;;;;2.80;68.12;97030.41;4994720;28;20566;-43
2021/03/03 02:53:28;;;;;;;14.40;7.85;;;;;;;3.23;66.28;97030.44;5009344;28;20050;-40
2021/03/03 02:55:55;;;;;;;15.77;8.32;;;;;;;3.51;65.00;97035.41;5012363;28;20503;-45
2021/03/03 02:58:21;;;;;;;13.38;8.10;;;;;;;3.59;64.82;97026.06;4998475;28;20077;-45
2021/03/03 03:00:53;;;;;;;14.65;8.00;;;;;;;3.01;67.95;97019.84;4994304;28;20081;-43
2021/03/03 03:03:26;;;;;;;12.95;8.43;;;;;;;3.34;66.22;97020.59;4997545;28;20519;-45
2021/03/03 03:06:15;;;;;;;17.63;9.17;;;;;;;3.42;66.08;97030.81;5014208;28;20136;-45
2021/03/03 03:08:44;;;;;;;17.30;8.60;;;;;;;3.26;66.23;97032.59;4995957;28;20046;-45
2021/03/03 03:11:16;;;;;;;16.70;9.48;;;;;;;3.10;67.40;97017.50;4994925;28;20054;-42
2021/03/03 03:13:46;;;;;;;14.75;8.70;;;;;;;2.89;67.81;97003.19;5003490;28;20054;-41
2021/03/03 03:16:13;;;;;;;15.65;8.27;;;;;;;2.99;67.25;97020.13;5014371;28;20568;-42
2021/03/03 03:18:48;;;;;;;14.57;8.57;;;;;;;3.87;64.07;97021.38;5004307;28;20411;-44
2021/03/03 03:21:15;;;;;;;13.90;8.77;;;;;;;3.49;64.53;97016.13;5012869;28;20053;-44
2021/03/03 03:23:45;;;;;;;19.02;9.38;;;;;;;3.35;64.72;97000.78;5012986;28;20058;-44
2021/03/03 03:26:12;;;;;;;16.95;8.57;;;;;;;3.02;66.19;97008.91;5009140;28;20054;-46
2021/03/03 03:28:39;;;;;;;14.55;8.30;;;;;;;3.16;65.45;97003.91;4994263;28;20463;-43
2021/03/03 03:31:07;;;;;;;14.55;9.30;;;;;;;3.18;65.56;97011.66;4994439;28;20054;-42
2021/03/03 03:33:34;;;;;;;23.10;10.23;;;;;;;2.99;65.90;97006.75;4999886;28;20057;-43
2021/03/03 03:36:01;;;;;;;17.20;8.90;;;;;;;2.73;67.26;97018.28;5014052;28;20145;-44
2021/03/03 03:38:32;;;;;;;14.15;8.40;;;;;;;2.87;66.42;97016.81;4990424;28;20108;-42
2021/03/03 03:41:07;;;;;;;14.73;8.82;;;;;;;2.75;67.09;97026.88;4995813;28;20057;-41
2021/03/03 03:43:35;;;;;;;15.25;8.20;;;;;;;2.31;68.84;97003.00;5013318;28;20061;-44
2021/03/03 03:46:03;;;;;;;16.63;8.50;;;;;;;2.52;68.22;97018.13;5012896;28;20084;-42
2021/03/03 03:48:36;;;;;;;15.63;8.73;;;;;;;2.84;67.45;97013.84;4999996;28;20042;-43
2021/03/03 03:51:04;;;;;;;;;;;;;;;2.89;67.32;97013.88;5005939;28;20064;-39
2021/03/03 03:53:34;;;;;;;14.48;7.93;;;;;;;3.54;64.30;97019.88;5013850;28;19956;-46
2021/03/03 03:56:01;;;;;;;14.75;7.93;;;;;;;3.56;63.84;97013.22;5008096;28;20109;-42
2021/03/03 03:58:27;;;;;;;13.50;7.97;;;;;;;3.31;64.58;97019.22;5013826;28;20066;-46
2021/03/03 04:00:54;;;;;;;14.82;8.82;;;;;;;2.97;65.54;97018.75;5009778;28;20572;-42
2021/03/03 04:03:20;;;;;;;16.20;8.48;;;;;;;2.79;66.13;97022.63;4999723;28;20045;-43
2021/03/03 04:05:47;;;;;;;12.88;8.02;;;;;;;2.21;68.57;97019.72;5014159;28;20046;-46
2021/03/03 04:08:14;;;;;;;15.00;8.15;;;;;;;1.72;70.83;97029.56;5005287;28;20125;-44
2021/03/03 04:10:40;;;;;;;14.88;7.70;;;;;;;1.93;70.28;97033.28;4993530;28;20146;-45
2021/03/03 04:13:07;;;;;;;11.38;7.00;;;;;;;2.13;70.13;97038.03;4996551;28;20046;-41
2021/03/03 04:15:34;;;;;;;12.30;7.07;;;;;;;2.46;68.78;97040.50;5012002;28;20423;-42
2021/03/03 04:18:00;;;;;;;11.73;7.10;;;;;;;2.62;68.41;97032.63;5011884;28;20131;-40
2021/03/03 04:20:27;;;;;;;13.93;7.45;;;;;;;3.11;65.88;97030.59;4995998;28;20054;-45
2021/03/03 04:22:53;;;;;;;15.70;7.68;;;;;;;2.91;65.87;97031.28;5010761;28;20042;-40
2021/03/03 04:25:20;;;;;;;12.27;7.40;;;;;;;2.81;66.01;97029.31;5010646;28;20415;-44
2021/03/03 04:28:12;;;;;;;16.27;10.18;;;;;;;2.18;68.98;97040.75;4998082;28;20104;-39
2021/03/03 04:30:38;;;;;;;10.75;6.88;;;;;;;2.07;69.04;97024.63;4964540;28;20047;-46
2021/03/03 04:33:09;;;;;;;12.63;7.57;;;;;;;2.41;68.22;97037.81;4971341;28;20142;-46
2021/03/03 04:35:36;;;;;;;13.00;7.35;;;;;;;2.41;68.41;97039.69;4972146;28;20500;-42
2021/03/03 04:38:03;;;;;;;13.05;7.60;;;;;;;2.43;68.18;97043.69;4964077;28;20197;-45
2021/03/03 04:40:29;;;;;;;14.52;7.93;;;;;;;2.29;68.05;97037.94;4968529;28;20051;-46
2021/03/03 04:42:56;;;;;;;12.90;7.30;;;;;;;2.60;67.36;97040.09;4973836;28;20102;-45
2021/03/03 04:45:22;;;;;;;12.27;7.40;;;;;;;2.45;67.81;97038.91;4972530;28;20480;-45
2021/03/03 04:47:53;;;;;;;14.95;7.45;;;;;;;2.95;66.12;97043.06;4970988;28;20137;-45
2021/03/03 04:50:20;;;;;;;19.13;8.25;;;;;;;2.71;65.84;97041.81;4972833;28;20053;-46
2021/03/03 04:52:47;;;;;;;16.02;7.97;;;;;;;2.69;67.11;97042.03;4971241;28;20050;-44
2021/03/03 04:55:13;;;;;;;14.27;7.60;;;;;;;2.63;66.75;97039.59;4970898;28;20058;-44
2021/03/03 04:57:40;;;;;;;13.27;8.15;;;;;;;2.55;66.87;97033.66;4968200;28;20047;-43
2021/03/03 05:00:07;;;;;;;14.25;8.23;;;;;;;2.32;67.73;97026.75;4954064;28;20054;-43
2021/03/03 05:02:33;;;;;;;13.57;7.63;;;;;;;2.44;67.72;97026.63;4960461;28;20061;-43
2021/03/03 05:05:00;;;;;;;15.80;8.27;;;;;;;2.74;66.61;97031.41;4971433;28;20050;-43
2021/03/03 05:07:26;;;;;;;16.50;8.50;;;;;;;2.94;65.62;97028.09;4968859;28;20098;-45
2021/03/03 05:09:53;;;;;;;15.77;8.05;;;;;;;3.14;64.96;97024.75;4953848;28;20082;-44
2021/03/03 05:12:19;;;;;;;17.75;9.88;;;;;;;3.06;65.27;97025.25;4957350;28;20101;-43
2021/03/03 05:14:46;;;;;;;17.88;9.15;;;;;;;2.83;65.75;97018.41;4972441;28;20575;-44
2021/03/03 05:17:12;;;;;;;16.35;8.88;;;;;;;2.55;66.63;97022.16;4961534;28;20062;-45
2021/03/03 05:19:39;;;;;;;13.73;8.65;;;;;;;2.37;67.12;97023.31;4973197;28;20121;-44
2021/03/03 05:22:05;;;;;;;16.30;8.82;;;;;;;2.25;68.14;97022.69;4972777;28;20420;-46
2021/03/03 05:24:31;;;;;;;18.52;8.68;;;;;;;2.23;68.19;97019.47;4971546;28;20133;-43
2021/03/03 05:26:58;;;;;;;22.55;8.23;;;;;;;2.12;67.98;97017.75;4954520;28;20361;-44
2021/03/03 05:29:24;;;;;;;15.95;8.82;;;;;;;2.31;67.70;97006.47;4971522;28;20136;-44
2021/03/03 05:31:51;;;;;;;17.20;8.27;;;;;;;2.48;67.35;97011.69;4972853;28;20055;-44
2021/03/03 05:34:17;;;;;;;21.70;9.00;;;;;;;2.49;67.22;97013.28;4971915;28;20062;-44
2021/03/03 05:36:44;;;;;;;14.98;8.00;;;;;;;2.63;66.85;97008.31;4972716;28;20082;-45
2021/03/03 05:39:10;;;;;;;43.35;10.25;;;;;;;2.62;66.92;97003.25;4966136;28;20043;-45
2021/03/03 05:41:37;;;;;;;44.85;11.52;;;;;;;2.75;66.58;97011.63;4970355;28;20074;-44
2021/03/03 05:44:07;;;;;;;32.30;9.73;;;;;;;2.68;66.41;97003.03;4971559;28;20065;-43
2021/03/03 05:46:38;;;;;;;44.40;10.10;;;;;;;2.54;67.19;97010.69;4970152;28;20062;-45
2021/03/03 05:49:05;;;;;;;29.80;9.52;;;;;;;2.35;67.58;96993.41;4969112;28;20055;-43
2021/03/03 05:51:34;;;;;;;42.53;10.38;;;;;;;2.27;67.93;97010.69;4972725;28;20082;-45
2021/03/03 05:54:02;;;;;;;47.58;10.98;;;;;;;2.31;67.71;97003.78;4971289;28;20386;-46
2021/03/03 05:56:29;;;;;;;22.42;9.57;;;;;;;2.45;67.56;97022.88;4968147;28;20055;-45
2021/03/03 05:59:16;;;;;;;27.38;9.30;;;;;;;2.41;67.50;97016.44;4965766;28;20110;-44
2021/03/03 06:01:45;;;;;;;35.00;10.13;;;;;;;2.49;67.32;97009.81;4953336;28;20078;-43
2021/03/03 06:04:20;;;;;;;30.95;10.23;;;;;;;2.51;67.27;97007.72;4962693;28;20126;-47
2021/03/03 06:06:47;;;;;;;27.92;9.75;;;;;;;2.88;66.22;97014.94;4965753;28;20472;-46
2021/03/03 06:09:14;;;;;;;30.88;11.18;;;;;;;2.76;66.52;97009.75;4971497;28;20560;-46
2021/03/03 06:11:40;;;;;;;22.23;8.75;;;;;;;2.93;65.93;97018.47;4972015;28;20137;-44
2021/03/03 06:14:07;;;;;;;22.33;7.78;;;;;;;2.91;65.99;97015.22;4972163;28;20468;-46
2021/03/03 06:16:34;;;;;;;18.35;7.97;;;;;;;3.05;65.81;97026.28;4966009;28;20138;-45
2021/03/03 06:19:01;;;;;;;18.58;7.10;;;;;;;3.16;65.02;97016.47;4971982;28;20146;-45
2021/03/03 06:21:29;;;;;;;16.60;8.40;;;;;;;3.02;65.53;97022.28;4972318;28;20154;-47
2021/03/03 06:24:03;;;;;;;17.00;6.13;;;;;;;3.16;65.00;97016.47;4971618;28;20051;-44
2021/03/03 06:26:30;;;;;;;14.73;6.30;;;;;;;3.49;63.64;97009.97;4964338;28;20493;-44
2021/03/03 06:28:57;;;;;;;20.08;6.55;;;;;;;3.58;63.45;97007.63;4952849;28;20608;-45
2021/03/03 06:31:28;;;;;;;11.05;6.40;;;;;;;3.51;63.31;97013.22;4959026;28;20055;-44
2021/03/03 06:34:09;;;;;;;19.75;7.40;;;;;;;3.54;62.88;97026.03;4971807;28;20511;-45
2021/03/03 06:36:36;;;;;;;14.88;5.93;;;;;;;3.89;62.78;97013.88;4966974;28;20058;-43
2021/03/03 06:39:15;;;;;;;14.68;6.55;;;;;;;3.92;62.62;97008.81;4956178;28;20125;-45
2021/03/03 06:41:42;;;;;;;17.73;7.20;;;;;;;4.22;61.27;97018.00;4961732;28;20055;-43
2021/03/03 06:44:08;;;;;;;13.57;5.75;;;;;;;4.17;61.34;97013.44;4961367;28;20051;-44
2021/03/03 06:46:35;;;;;;;25.30;6.00;;;;;;;4.55;59.96;97011.38;4967584;28;20146;-44
2021/03/03 06:49:02;;;;;;;14.32;5.60;;;;;;;4.84;58.58;97008.97;4965783;28;20043;-44
2021/03/03 06:51:33;;;;;;;12.30;5.22;;;;;;;4.54;57.96;97014.28;4970390;28;20133;-43
2021/03/03 06:54:02;;;;;;;23.63;6.28;;;;;;;4.53;59.78;96999.28;4974296;28;20512;-43
2021/03/03 06:56:39;;;;;;;20.73;5.65;;;;;;;4.78;58.49;97009.22;4974495;28;20043;-47
2021/03/03 06:59:26;;;;;;;14.98;5.47;;;;;;;4.80;57.77;97007.06;4970813;28;20452;-47
2021/03/03 07:01:57;;;;;;;32.58;6.20;;;;;;;4.72;57.64;97013.78;4975852;28;20080;-46
2021/03/03 07:04:32;;;;;;;28.88;5.03;;;;;;;4.73;56.86;97010.03;4974948;28;20169;-50
2021/03/03 07:07:01;;;;;;;34.95;8.07;;;;;;;4.78;57.04;97020.75;4973404;28;20059;-52
2021/03/03 07:09:40;;;;;;;30.60;6.32;;;;;;;5.16;55.81;97002.47;4956589;28;20125;-43
2021/03/03 07:12:09;;;;;;;20.20;5.80;;;;;;;5.22;55.51;97009.44;4973288;28;20062;-41
2021/03/03 07:14:38;;;;;;;24.75;6.15;;;;;;;5.18;56.27;97013.75;4975620;28;20113;-43
2021/03/03 07:17:06;;;;;;;22.00;5.30;;;;;;;5.56;54.32;97019.56;4974769;28;20043;-41
2021/03/03 07:19:35;;;;;;;12.98;5.07;;;;;;;5.69;53.40;97012.78;4975660;28;20055;-43
2021/03/03 07:22:02;;;;;;;14.20;4.43;;;;;;;5.95;52.15;97027.00;4975550;28;20082;-40
2021/03/03 07:24:31;;;;;;;13.45;3.78;;;;;;;5.97;51.09;97028.28;4975246;28;20043;-41
2021/03/03 07:26:59;;;;;;;20.73;4.78;;;;;;;5.93;52.24;97029.13;4963123;28;20082;-47
2021/03/03 07:29:26;;;;;;;14.38;3.85;;;;;;;6.14;50.50;97032.53;4970727;28;20581;-40
2021/03/03 07:31:53;;;;;;;11.57;3.08;;;;;;;6.12;51.12;97035.50;4955879;28;20516;-41
2021/03/03 07:34:20;;;;;;;12.65;4.43;;;;;;;6.24;50.77;97029.78;4956022;28;20114;-47
2021/03/03 07:36:50;;;;;;;21.60;4.57;;;;;;;6.39;51.44;97040.44;4955763;28;20513;-45
2021/03/03 07:39:19;;;;;;;13.43;4.35;;;;;;;6.55;49.87;97035.78;4955687;28;20084;-42
2021/03/03 07:41:47;;;;;;;12.18;4.22;;;;;;;6.70;50.01;97038.38;4955899;29;20059;-40
2021/03/03 07:44:22;;;;;;;10.93;5.00;;;;;;;6.60;49.84;97024.19;4955942;28;20063;-41
2021/03/03 07:46:49;;;;;;;17.45;4.10;;;;;;;6.41;50.10;97024.06;4975169;28;20130;-40
2021/03/03 07:49:24;;;;;;;9.27;4.30;;;;;;;6.85;48.47;97029.38;4964218;28;20079;-42
2021/03/03 07:51:51;;;;;;;10.52;3.72;;;;;;;7.10;47.70;97025.69;4974961;28;20125;-43
2021/03/03 07:54:17;;;;;;;12.90;3.70;;;;;;;7.38;47.22;97034.84;4956952;28;20046;-41
2021/03/03 07:56:45;;;;;;;10.35;4.20;;;;;;;7.01;48.74;97030.06;4973803;28;20413;-41
2021/03/03 07:59:12;;;;;;;10.55;3.70;;;;;;;6.77;48.10;97017.34;4972768;28;20089;-42
2021/03/03 08:01:39;;;;;;;9.18;4.18;;;;;;;6.91;48.51;97024.75;4973545;28;20098;-42
2021/03/03 08:04:06;;;;;;;8.93;3.38;;;;;;;7.16;46.92;97023.75;4973320;28;20061;-41
2021/03/03 08:06:36;;;;;;;7.80;3.03;;;;;;;7.40;45.79;97018.41;4972070;28;20121;-47
2021/03/03 08:09:05;;;;;;;10.88;3.63;;;;;;;7.55;45.87;97026.31;4962509;28;20172;-41
2021/03/03 08:11:33;;;;;;;11.45;3.60;;;;;;;7.39;46.24;97027.56;4974671;28;20046;-43
2021/03/03 08:14:00;;;;;;;10.30;3.25;;;;;;;7.38;46.13;97032.16;4968655;28;21251;-43
2021/03/03 08:16:27;;;;;;;9.85;4.18;;;;;;;7.11;47.26;97021.09;4973846;28;20070;-43
2021/03/03 08:18:56;;;;;;;11.45;3.92;;;;;;;7.23;46.81;97025.03;4966025;28;20106;-46
2021/03/03 08:21:23;;;;;;;13.18;3.65;;;;;;;7.15;46.68;97022.13;4966920;28;20042;-42
2021/03/03 08:23:57;;;;;;;10.82;3.78;;;;;;;7.88;45.66;97023.81;4963494;28;20051;-41
2021/03/03 08:26:24;;;;;;;13.52;4.05;;;;;;;8.04;45.11;97024.44;4973180;28;20062;-41
2021/03/03 08:28:52;;;;;;;12.65;3.20;;;;;;;7.73;45.43;97019.38;4973010;28;20462;-41
2021/03/03 08:31:25;;;;;;;7.25;3.92;;;;;;;7.89;45.01;97020.00;4973034;28;20061;-41
2021/03/03 08:33:52;;;;;;;;;;;;;;;8.14;44.40;97032.38;4973818;28;20156;-47
2021/03/03 08:36:24;;;;;;;14.23;4.20;;;;;;;7.35;46.03;97018.47;4959234;28;19922;-47
2021/03/03 08:38:54;;;;;;;9.68;3.60;;;;;;;7.86;44.81;97032.16;4961934;28;20047;-41
2021/03/03 08:41:26;;;;;;;11.50;3.47;;;;;;;7.91;44.86;97026.72;4968356;28;20050;-45
2021/03/03 08:44:03;;;;;;;10.83;3.50;;;;;;;7.96;44.44;97025.84;4973367;28;20058;-42
2021/03/03 08:46:29;;;;;;;8.75;2.92;;;;;;;7.78;44.84;97026.63;4959273;28;20670;-41
2021/03/03 08:48:57;;;;;;;7.57;3.38;;;;;;;8.03;44.16;97030.91;4973413;28;20058;-42
2021/03/03 08:51:33;;;;;;;8.77;3.40;;;;;;;8.22;43.82;97029.03;4973828;28;20059;-41
2021/03/03 08:54:05;;;;;;;12.00;3.78;;;;;;;8.53;43.42;97024.06;4965191;28;20059;-40
2021/03/03 08:56:33;;;;;;;10.70;3.50;;;;;;;8.40;42.88;97022.88;4954269;29;20139;-42
2021/03/03 08:59:04;;;;;;;9.95;3.65;;;;;;;8.77;42.25;97029.34;4954839;28;20047;-46
2021/03/03 09:01:49;;;;;;;9.50;4.00;;;;;;;8.79;42.29;97026.38;4954166;28;20110;-44
2021/03/03 09:04:16;;;;;;;9.80;3.58;;;;;;;8.93;42.07;97027.22;4960744;28;20626;-45
2021/03/03 09:06:48;;;;;;;11.50;4.10;;;;;;;9.16;41.24;97030.09;4964624;28;20055;-40
2021/03/03 09:09:15;;;;;;;8.27;4.20;;;;;;;9.42;40.84;97027.75;4972292;28;20105;-44
2021/03/03 09:11:41;;;;;;;12.57;4.18;;;;;;;9.16;41.59;97025.47;4968170;28;20070;-44
2021/03/03 09:14:08;;;;;;;9.70;3.83;;;;;;;9.31;40.74;97030.63;4971748;28;20078;-45
2021/03/03 09:16:34;;;;;;;8.63;3.70;;;;;;;9.50;40.24;97041.38;4957940;28;20143;-43
2021/03/03 09:19:06;;;;;;;11.60;4.30;;;;;;;9.41;40.79;97035.06;4967614;28;20130;-44
2021/03/03 09:21:33;;;;;;;25.35;5.13;;;;;;;9.83;41.29;97025.88;4961063;28;20154;-46
2021/03/03 09:24:08;;;;;;;28.08;5.45;;;;;;;10.13;40.96;97025.56;4966843;28;20082;-44
2021/03/03 09:26:36;;;;;;;18.70;5.05;;;;;;;10.44;40.46;97031.97;4962595;28;20043;-42
2021/03/03 09:29:04;;;;;;;26.15;6.03;;;;;;;10.74;40.06;97024.25;4962046;28;20051;-43
2021/03/03 09:31:36;;;;;;;14.55;5.72;;;;;;;10.01;40.21;97016.09;4970835;28;20078;-45
2021/03/03 09:34:04;;;;;;;;;;;;;;;10.53;39.65;97019.31;4971844;28;20055;-44
2021/03/03 09:36:30;;;;;;;14.98;6.97;;;;;;;10.41;40.02;97012.84;4970911;28;20448;-44
2021/03/03 09:39:01;;;;;;;19.83;7.90;;;;;;;10.18;40.53;97014.66;4971355;28;20054;-44
2021/03/03 09:41:28;;;;;;;16.55;7.68;;;;;;;10.89;39.72;97013.09;4969632;28;20477;-44
2021/03/03 09:44:01;;;;;;;18.92;8.40;;;;;;;10.62;39.28;97010.47;4970517;28;20109;-46
2021/03/03 09:46:58;;;;;;;13.35;7.68;;;;;;;10.53;38.86;97010.41;4960945;28;20062;-43
2021/03/03 09:49:30;;;;;;;16.83;8.20;;;;;;;10.70;38.56;97013.25;4966732;28;20054;-44
2021/03/03 09:51:59;;;;;;;13.57;8.13;;;;;;;10.66;38.78;97011.44;4966959;28;20113;-46
2021/03/03 09:54:36;;;;;;;16.13;8.68;;;;;;;10.70;38.25;97005.13;4966757;28;20076;-42
2021/03/03 09:57:04;;;;;;;20.70;10.05;;;;;;;10.88;37.49;97008.75;4968073;28;20054;-48
2021/03/03 09:59:32;;;;;;;17.92;10.63;;;;;;;11.19;36.00;97008.03;4968987;28;20468;-47
2021/03/03 10:01:59;;;;;;;15.93;9.98;;;;;;;11.49;36.05;97011.03;4967142;28;20456;-48
2021/03/03 10:04:27;;;;;;;16.48;10.07;;;;;;;11.27;36.34;97004.53;4968795;28;20783;-48
2021/03/03 10:06:58;;;;;;;15.70;9.50;;;;;;;11.25;36.13;97000.56;4969724;28;20389;-46
2021/03/03 10:09:26;;;;;;;13.32;9.18;;;;;;;11.22;35.22;97007.41;4963071;28;20492;-45
2021/03/03 10:11:53;;;;;;;15.82;9.65;;;;;;;11.40;35.35;97013.69;4971635;28;20051;-41
2021/03/03 10:14:19;;;;;;;15.77;9.35;;;;;;;10.89;36.22;97007.66;4971194;28;20058;-41
2021/03/03 10:17:00;;;;;;;14.15;9.43;;;;;;;11.60;34.90;97012.38;4967686;28;20038;-43
2021/03/03 10:19:26;;;;;;;22.08;9.65;;;;;;;12.11;33.73;97009.06;4968470;28;20393;-47
2021/03/03 10:21:57;;;;;;;15.52;9.32;;;;;;;11.87;33.75;97008.69;4967748;28;20483;-42
2021/03/03 10:24:26;;;;;;;17.23;8.75;;;;;;;11.73;33.52;97011.47;4966668;28;20067;-42
2021/03/03 10:26:52;;;;;;;16.35;8.77;;;;;;;11.74;33.64;97012.28;4971087;28;20092;-48
2021/03/03 10:29:32;;;;;;;14.10;8.75;;;;;;;11.81;32.92;97002.56;4974079;28;20404;-44
2021/03/03 10:32:14;;;;;;;14.45;8.18;;;;;;;11.56;32.64;96997.84;4984061;28;20560;-44
2021/03/03 10:34:43;;;;;;;12.73;6.88;;;;;;;10.87;33.00;96968.47;4953799;28;20050;-46
2021/03/03 10:37:23;;;;;;;12.05;7.65;;;;;;;11.41;32.84;96991.72;4971256;28;20054;-49
2021/03/03 10:39:50;;;;;;;11.85;7.25;;;;;;;12.27;30.80;96989.63;4972619;28;20077;-43
2021/03/03 10:42:21;;;;;;;15.30;7.30;;;;;;;12.53;29.88;96995.09;4974960;28;20138;-42
2021/03/03 10:44:54;;;;;;;15.80;6.95;;;;;;;13.09;30.14;96991.38;4969741;28;20489;-43
2021/03/03 10:47:50;;;;;;;20.97;8.50;;;;;;;13.44;28.74;96987.81;4973722;28;20527;-43
2021/03/03 10:50:32;;;;;;;14.10;7.30;;;;;;;12.94;29.59;96980.25;4957738;28;20047;-44
2021/03/03 10:53:01;;;;;;;10.23;6.88;;;;;;;12.83;29.99;96994.13;4973123;28;20130;-42
2021/03/03 10:55:37;;;;;;;16.25;7.97;;;;;;;12.62;30.27;96998.63;4972763;28;20130;-47
2021/03/03 10:58:06;;;;;;;15.32;7.32;;;;;;;13.52;29.24;96987.81;4964869;28;20161;-41
2021/03/03 11:01:03;;;;;;;16.35;7.95;;;;;;;13.93;28.58;96985.53;4969785;28;20086;-41
2021/03/03 11:03:47;;;;;;;13.93;7.78;;;;;;;13.99;28.61;96986.94;4984933;28;20054;-53
2021/03/03 11:06:13;;;;;;;;;;;;;;;13.67;28.65;96994.59;4974635;28;20063;-41
2021/03/03 11:08:40;;;;;;;17.83;7.85;;;;;;;13.32;29.27;96999.34;4971323;28;20021;-41
2021/03/03 11:11:07;;;;;;;16.10;7.70;;;;;;;13.67;29.51;96982.94;4973820;28;20089;-45
2021/03/03 11:13:35;;;;;;;10.48;7.50;;;;;;;13.52;29.87;96984.28;4966483;28;20050;-44
2021/03/03 11:16:03;;;;;;;13.68;7.38;;;;;;;13.33;29.80;96984.66;4968889;28;20532;-45
2021/03/03 11:18:30;;;;;;;14.40;7.80;;;;;;;13.40;29.42;96976.00;4965712;28;20046;-47
2021/03/03 11:20:57;;;;;;;9.73;6.53;;;;;;;13.64;29.90;96976.22;4973810;28;20061;-44
2021/03/03 11:23:27;;;;;;;13.73;6.78;;;;;;;13.66;29.31;96973.19;4970180;28;20049;-48
2021/03/03 11:25:55;;;;;;;13.77;7.03;;;;;;;13.26;30.31;96974.28;4970564;28;20078;-45
2021/03/03 11:28:24;;;;;;;13.57;7.20;;;;;;;13.42;29.85;96971.03;4965380;28;20101;-45
2021/03/03 11:30:52;;;;;;;12.68;7.25;;;;;;;14.20;29.01;96963.31;4969601;28;20101;-46
2021/03/03 11:33:19;;;;;;;17.35;6.97;;;;;;;14.74;27.83;96959.88;4973000;28;20137;-46
2021/03/03 11:35:46;;;;;;;12.88;7.13;;;;;;;15.03;27.73;96966.34;4972007;28;20074;-50
2021/03/03 11:38:17;;;;;;;11.10;6.40;;;;;;;14.48;27.46;96960.84;4967435;28;20047;-45
2021/03/03 11:40:43;;;;;;;10.93;6.95;;;;;;;14.42;28.00;96966.81;4967119;28;20086;-48
2021/03/03 11:43:10;;;;;;;12.20;6.25;;;;;;;14.12;28.64;96955.19;4971975;28;20051;-44